Time;durP1;ratioP1;P1;durP2;ratioP2;P2;SDS_P1;SDS_P2;PMS_P1;PMS_P2;Temp;Humidity;BMP_temperature;BMP_pressure;BME280_temperature;BME280_humidity;BME280_pressure;Samples;Min_cycle;Max_cycle;Signal;HPM_P1;HPM_P2
2023/07/18 00:00:33;;;;;;;;;;;13.80;68.70;;;;;;4133963;28;20401;-89
2023/07/18 00:02:35;;;;;;;;;;;13.80;68.50;;;;;;4150054;28;20540;-89
2023/07/18 00:04:38;;;;;;;;;;;13.80;68.10;;;;;;4148378;28;19917;-90
2023/07/18 00:06:59;;;;;;;;;;;13.90;67.90;;;;;;4134709;28;20354;-90
2023/07/18 00:08:59;;;;;;;;;;;13.90;67.70;;;;;;4135628;28;19917;-91
2023/07/18 00:11:22;;;;;;;;;;;13.90;68.70;;;;;;4138924;28;19929;-90
2023/07/18 00:13:42;;;;;;;;;;;13.80;68.30;;;;;;4131573;28;20044;-90
2023/07/18 00:16:03;;;;;;;;;;;13.90;68.80;;;;;;4137154;28;19922;-91
2023/07/18 00:18:24;;;;;;;;;;;13.80;68.80;;;;;;4135526;28;19925;-90
2023/07/18 00:20:45;;;;;;;;;;;13.90;69.70;;;;;;4136529;28;20381;-90
2023/07/18 00:23:08;;;;;;;;;;;13.90;69.10;;;;;;4136617;28;20294;-89
2023/07/18 00:25:32;;;;;;;;;;;13.80;69.20;;;;;;4138501;28;20000;-90
2023/07/18 00:27:53;;;;;;;;;;;13.90;69.00;;;;;;4137500;28;19921;-89
2023/07/18 00:30:03;;;;;;;;;;;13.80;68.80;;;;;;4134558;28;19913;-90
2023/07/18 00:32:04;;;;;;;;;;;13.80;69.00;;;;;;4134341;28;19961;-89
2023/07/18 00:34:19;;;;;;;;;;;13.80;68.90;;;;;;4123893;28;19920;-90
2023/07/18 00:36:23;;;;;;;;;;;13.80;68.60;;;;;;4138233;28;20008;-89
2023/07/18 00:38:23;;;;;;;;;;;13.80;68.80;;;;;;4136293;28;19993;-90
2023/07/18 00:40:24;;;;;;;;;;;13.80;69.40;;;;;;4136723;28;19918;-90
2023/07/18 00:42:40;;;;;;;;;;;13.80;69.20;;;;;;4137746;28;19972;-90
2023/07/18 00:44:43;;;;;;;;;;;13.80;69.30;;;;;;4137910;28;19937;-89
2023/07/18 00:46:44;;;;;;;;;;;13.70;68.90;;;;;;4139672;28;19913;-91
2023/07/18 00:48:45;;;;;;;;;;;13.70;69.00;;;;;;4137055;28;19964;-90
2023/07/18 00:50:46;;;;;;;;;;;13.70;69.10;;;;;;4139322;28;19961;-89
2023/07/18 00:52:48;;;;;;;;;;;13.70;68.80;;;;;;4138909;28;19921;-89
2023/07/18 00:54:48;;;;;;;;;;;13.80;68.70;;;;;;4139167;28;20406;-90
2023/07/18 00:56:49;;;;;;;;;;;13.70;69.10;;;;;;4142467;28;19917;-89
2023/07/18 00:58:52;;;;;;;;;;;13.70;68.90;;;;;;4121534;28;19961;-89
2023/07/18 01:00:54;;;;;;;;;;;13.60;68.60;;;;;;4139771;28;19946;-88
2023/07/18 01:02:54;;;;;;;;;;;13.70;69.00;;;;;;4136431;28;20307;-89
2023/07/18 01:04:55;;;;;;;;;;;13.60;69.10;;;;;;4135448;28;19917;-88
2023/07/18 01:06:56;;;;;;;;;;;13.60;68.80;;;;;;4135366;28;19921;-89
2023/07/18 01:08:56;;;;;;;;;;;13.60;68.80;;;;;;4139101;28;19929;-89
2023/07/18 01:10:57;;;;;;;;;;;13.60;69.30;;;;;;4139984;28;19921;-88
2023/07/18 01:12:59;;;;;;;;;;;13.60;69.20;;;;;;4139459;28;19935;-89
2023/07/18 01:15:00;;;;;;;;;;;13.60;69.10;;;;;;4137753;28;20284;-89
2023/07/18 01:17:01;;;;;;;;;;;13.60;68.80;;;;;;4143495;28;19913;-88
2023/07/18 01:19:02;;;;;;;;;;;13.60;68.60;;;;;;4139767;28;20670;-89
2023/07/18 01:21:03;;;;;;;;;;;13.60;68.80;;;;;;4136774;28;19921;-88
2023/07/18 01:23:04;;;;;;;;;;;13.50;69.20;;;;;;4136516;28;19928;-90
2023/07/18 01:25:04;;;;;;;;;;;13.50;69.10;;;;;;4134779;28;19917;-89
2023/07/18 01:27:05;;;;;;;;;;;13.50;69.30;;;;;;4138280;28;20358;-90
2023/07/18 01:29:13;;;;;;;;;;;13.50;69.00;;;;;;4135653;28;20390;-90
2023/07/18 01:31:16;;;;;;;;;;;13.50;68.90;;;;;;4134468;28;19929;-89
2023/07/18 01:33:30;;;;;;;;;;;13.50;69.40;;;;;;4138266;28;19918;-89
2023/07/18 01:35:31;;;;;;;;;;;13.40;68.90;;;;;;4115279;28;19945;-89
2023/07/18 01:37:32;;;;;;;;;;;13.40;68.90;;;;;;4151403;28;19951;-88
2023/07/18 01:39:33;;;;;;;;;;;13.40;68.90;;;;;;4131170;28;20386;-89
2023/07/18 01:41:33;;;;;;;;;;;13.40;69.60;;;;;;4136610;28;19968;-89
2023/07/18 01:43:34;;;;;;;;;;;13.40;70.00;;;;;;4136956;28;19952;-89
2023/07/18 01:45:37;;;;;;;;;;;13.40;69.60;;;;;;4137475;28;20610;-91
2023/07/18 01:47:58;;;;;;;;;;;13.30;70.20;;;;;;4140223;28;20382;-90
2023/07/18 01:49:59;;;;;;;;;;;13.30;69.60;;;;;;4124946;28;20016;-90
2023/07/18 01:52:06;;;;;;;;;;;13.40;69.80;;;;;;4130564;28;20390;-91
2023/07/18 01:54:07;;;;;;;;;;;13.30;69.90;;;;;;4137550;28;19964;-90
2023/07/18 01:56:07;;;;;;;;;;;13.30;69.50;;;;;;4121819;28;20356;-91
2023/07/18 01:58:13;;;;;;;;;;;13.20;69.60;;;;;;4134923;28;20441;-89
2023/07/18 02:00:18;;;;;;;;;;;13.20;69.40;;;;;;4142426;28;19913;-91
2023/07/18 02:02:19;;;;;;;;;;;13.20;69.30;;;;;;4135038;28;20366;-90
2023/07/18 02:04:19;;;;;;;;;;;13.20;69.30;;;;;;4119876;28;19978;-90
2023/07/18 02:06:20;;;;;;;;;;;13.10;69.60;;;;;;4132752;28;19926;-89
2023/07/18 02:08:21;;;;;;;;;;;13.20;69.50;;;;;;4135409;28;20379;-89
2023/07/18 02:10:22;;;;;;;;;;;13.20;69.40;;;;;;4139739;28;19925;-90
2023/07/18 02:12:22;;;;;;;;;;;13.10;69.40;;;;;;4121893;28;19938;-89
2023/07/18 02:14:29;;;;;;;;;;;13.10;69.20;;;;;;4128839;28;19918;-92
2023/07/18 02:16:33;;;;;;;;;;;13.10;69.40;;;;;;4136921;28;19949;-91
2023/07/18 02:18:34;;;;;;;;;;;13.10;69.50;;;;;;4134920;28;20738;-92
2023/07/18 02:20:43;;;;;;;;;;;13.10;69.60;;;;;;4121969;28;19922;-90
2023/07/18 02:22:47;;;;;;;;;;;13.10;69.50;;;;;;4139277;28;19930;-91
2023/07/18 02:24:48;;;;;;;;;;;13.10;69.60;;;;;;4139565;28;19942;-91
2023/07/18 02:26:49;;;;;;;;;;;13.10;70.10;;;;;;4132722;28;20008;-90
2023/07/18 02:28:50;;;;;;;;;;;13.10;70.40;;;;;;4120474;28;19918;-90
2023/07/18 02:30:52;;;;;;;;;;;13.10;70.30;;;;;;4138607;28;19976;-89
2023/07/18 02:32:53;;;;;;;;;;;13.10;70.00;;;;;;4134533;28;19929;-89
2023/07/18 02:34:54;;;;;;;;;;;13.10;69.90;;;;;;4133447;28;19913;-90
2023/07/18 02:36:55;;;;;;;;;;;13.10;70.20;;;;;;4120345;28;19914;-88
2023/07/18 02:38:56;;;;;;;;;;;13.10;69.90;;;;;;4135639;28;19921;-89
2023/07/18 02:40:56;;;;;;;;;;;13.10;69.80;;;;;;4134421;28;19989;-89
2023/07/18 02:42:57;;;;;;;;;;;13.10;69.80;;;;;;4115864;28;19917;-89
2023/07/18 02:44:59;;;;;;;;;;;13.10;69.60;;;;;;4134734;28;19924;-89
2023/07/18 02:46:59;;;;;;;;;;;13.10;69.70;;;;;;4135917;28;19936;-91
2023/07/18 02:49:00;;;;;;;;;;;13.10;69.80;;;;;;4137437;28;20502;-92
2023/07/18 02:51:03;;;;;;;;;;;13.00;69.70;;;;;;4122014;28;19929;-91
2023/07/18 02:53:03;;;;;;;;;;;13.10;70.00;;;;;;4139728;28;20028;-90
2023/07/18 02:55:04;;;;;;;;;;;13.10;70.50;;;;;;4137091;28;20068;-91
2023/07/18 02:57:08;;;;;;;;;;;13.00;71.00;;;;;;4125240;28;19914;-90
2023/07/18 02:59:21;;;;;;;;;;;13.00;70.80;;;;;;4117231;28;19922;-91
2023/07/18 03:01:22;;;;;;;;;;;13.00;70.70;;;;;;4155218;28;19974;-90
2023/07/18 03:03:26;;;;;;;;;;;13.10;70.90;;;;;;4141299;28;20345;-91
2023/07/18 03:05:27;;;;;;;;;;;13.00;70.70;;;;;;4142036;28;19948;-89
2023/07/18 03:07:28;;;;;;;;;;;12.90;70.70;;;;;;4138597;28;19921;-90
2023/07/18 03:09:28;;;;;;;;;;;13.00;70.50;;;;;;4135782;28;19967;-90
2023/07/18 03:11:29;;;;;;;;;;;13.00;70.70;;;;;;4119845;28;19944;-89
2023/07/18 03:13:49;;;;;;;;;;;13.00;71.20;;;;;;4138236;28;20410;-90
2023/07/18 03:16:10;;;;;;;;;;;13.00;71.20;;;;;;4139889;28;20418;-88
2023/07/18 03:18:31;;;;;;;;;;;12.90;70.90;;;;;;4138781;28;20868;-89
2023/07/18 03:20:52;;;;;;;;;;;13.00;71.60;;;;;;4145545;28;20299;-89
2023/07/18 03:23:12;;;;;;;;;;;12.90;71.40;;;;;;4130038;28;20006;-90
2023/07/18 03:25:33;;;;;;;;;;;12.90;71.10;;;;;;4134925;28;20840;-89
2023/07/18 03:27:56;;;;;;;;;;;12.90;71.90;;;;;;4136204;28;20619;-89
2023/07/18 03:30:21;;;;;;;;;;;12.80;71.10;;;;;;4135397;28;20488;-90
2023/07/18 03:32:41;;;;;;;;;;;12.80;71.30;;;;;;4136491;28;20341;-89
2023/07/18 03:35:09;;;;;;;;;;;12.80;71.50;;;;;;4133732;28;20339;-90
2023/07/18 03:37:29;;;;;;;;;;;12.80;71.70;;;;;;4138086;28;20553;-90
2023/07/18 03:39:50;;;;;;;;;;;12.90;71.50;;;;;;4135230;28;20313;-90
2023/07/18 03:42:11;;;;;;;;;;;12.90;71.50;;;;;;4135657;28;20342;-89
2023/07/18 03:44:31;;;;;;;;;;;12.90;71.50;;;;;;4134793;28;20290;-90
2023/07/18 03:46:52;;;;;;;;;;;12.90;71.80;;;;;;4135396;28;20346;-90
2023/07/18 03:49:12;;;;;;;;;;;12.90;72.80;;;;;;4132899;28;20570;-90
2023/07/18 03:51:36;;;;;;;;;;;12.90;72.80;;;;;;4133857;28;20636;-90
2023/07/18 03:53:57;;;;;;;;;;;12.80;72.60;;;;;;4136069;28;20294;-89
2023/07/18 03:56:17;;;;;;;;;;;12.90;73.10;;;;;;4135381;28;20418;-89
2023/07/18 03:58:19;;;;;;;;;;;12.90;73.00;;;;;;4128549;28;20035;-90
2023/07/18 04:00:28;;;;;;;;;;;12.90;73.40;;;;;;4132364;28;20449;-90
2023/07/18 04:02:29;;;;;;;;;;;12.90;73.40;;;;;;4136940;28;19967;-88
2023/07/18 04:04:30;;;;;;;;;;;13.00;74.00;;;;;;4135483;28;19920;-89
2023/07/18 04:06:30;;;;;;;;;;;12.90;73.90;;;;;;4138165;28;19921;-89
2023/07/18 04:08:31;;;;;;;;;;;12.90;74.20;;;;;;4135243;28;19938;-89
2023/07/18 04:10:32;;;;;;;;;;;12.90;74.40;;;;;;4135726;28;19918;-89
2023/07/18 04:12:33;;;;;;;;;;;13.00;74.10;;;;;;4120544;28;19930;-89
2023/07/18 04:14:41;;;;;;;;;;;13.00;74.50;;;;;;4135849;28;20455;-90
2023/07/18 04:16:41;;;;;;;;;;;13.10;74.70;;;;;;4137979;28;19917;-89
2023/07/18 04:18:42;;;;;;;;;;;13.10;74.60;;;;;;4137133;28;20326;-88
2023/07/18 04:20:46;;;;;;;;;;;13.20;75.00;;;;;;4134801;28;19921;-90
2023/07/18 04:22:46;;;;;;;;;;;13.20;76.30;;;;;;4137206;28;20004;-89
2023/07/18 04:25:02;;;;;;;;;;;13.30;76.00;;;;;;4120541;28;19918;-89
2023/07/18 04:27:03;;;;;;;;;;;13.20;76.20;;;;;;4133176;28;20225;-89
2023/07/18 04:29:04;;;;;;;;;;;13.40;76.70;;;;;;4134744;28;20019;-88
2023/07/18 04:31:05;;;;;;;;;;;13.50;76.90;;;;;;4133521;28;19961;-89
2023/07/18 04:33:11;;;;;;;;;;;13.50;77.10;;;;;;4124280;28;19914;-89
2023/07/18 04:35:11;;;;;;;;;;;13.60;76.60;;;;;;4152538;28;20276;-89
2023/07/18 04:37:12;;;;;;;;;;;13.70;76.50;;;;;;4136514;28;19955;-89
2023/07/18 04:39:13;;;;;;;;;;;13.80;77.70;;;;;;4136133;28;19921;-89
2023/07/18 04:41:33;;;;;;;;;;;13.80;76.70;;;;;;4139072;28;20012;-88
2023/07/18 04:43:54;;;;;;;;;;;14.00;76.60;;;;;;4134923;28;20342;-88
2023/07/18 04:46:14;;;;;;;;;;;14.00;76.70;;;;;;4130827;28;20401;-89
2023/07/18 04:48:44;;;;;;;;;;;14.10;77.30;;;;;;4135958;28;20437;-89
2023/07/18 04:51:05;;;;;;;;;;;14.20;77.40;;;;;;4136081;28;20615;-90
2023/07/18 04:53:26;;;;;;;;;;;14.30;77.40;;;;;;4136373;28;19936;-90
2023/07/18 04:56:00;;;;;;;;;;;;;;;;;;;;;
2023/07/18 04:58:24;;;;;;;;;;;14.40;77.10;;;;;;4107420;28;20438;-89
2023/07/18 05:00:45;;;;;;;;;;;14.50;77.20;;;;;;4137393;28;20298;-88
2023/07/18 05:03:10;;;;;;;;;;;14.70;76.90;;;;;;4140326;28;20354;-90
2023/07/18 05:05:30;;;;;;;;;;;14.70;76.70;;;;;;4136168;28;20354;-89
2023/07/18 05:07:51;;;;;;;;;;;14.80;77.10;;;;;;4134626;28;20381;-89
2023/07/18 05:10:11;;;;;;;;;;;14.90;76.80;;;;;;4135896;28;20524;-90
2023/07/18 05:12:39;;;;;;;;;;;15.00;76.70;;;;;;4135723;28;20371;-87
2023/07/18 05:15:00;;;;;;;;;;;15.00;76.10;;;;;;4136498;28;20316;-87
2023/07/18 05:17:19;;;;;;;;;;;15.20;75.70;;;;;;4131940;28;20059;-87
2023/07/18 05:19:40;;;;;;;;;;;15.20;75.30;;;;;;4141478;28;20283;-86
2023/07/18 05:21:52;;;;;;;;;;;15.30;75.00;;;;;;4123775;28;19926;-87
2023/07/18 05:24:13;;;;;;;;;;;15.30;74.80;;;;;;4134171;28;20905;-86
2023/07/18 05:26:33;;;;;;;;;;;15.40;74.50;;;;;;4137316;28;20383;-86
2023/07/18 05:28:43;;;;;;;;;;;15.50;74.30;;;;;;4135846;28;20061;-86
2023/07/18 05:31:08;;;;;;;;;;;15.50;74.10;;;;;;4152540;28;20294;-88
2023/07/18 05:33:15;;;;;;;;;;;15.50;74.10;;;;;;4122343;28;19941;-88
2023/07/18 05:35:36;;;;;;;;;;;15.60;74.10;;;;;;4138289;28;20830;-88
2023/07/18 05:38:09;;;;;;;;;;;15.70;74.00;;;;;;4136574;28;20480;-88
2023/07/18 05:40:29;;;;;;;;;;;15.80;73.80;;;;;;4138386;28;20279;-87
2023/07/18 05:42:56;;;;;;;;;;;15.90;73.90;;;;;;4138560;28;20354;-88
2023/07/18 05:45:16;;;;;;;;;;;15.90;73.90;;;;;;4137452;28;19918;-88
2023/07/18 05:47:37;;;;;;;;;;;16.00;73.80;;;;;;4147714;28;20291;-88
2023/07/18 05:49:58;;;;;;;;;;;16.10;73.20;;;;;;4145173;28;19940;-90
2023/07/18 05:52:25;;;;;;;;;;;16.10;72.90;;;;;;4148707;28;20264;-90
2023/07/18 05:54:46;;;;;;;;;;;16.20;72.60;;;;;;4136713;28;20941;-89
2023/07/18 05:57:07;;;;;;;;;;;16.30;72.40;;;;;;4134184;28;20419;-87
2023/07/18 05:59:07;;;;;;;;;;;16.30;72.50;;;;;;4134637;28;19925;-88
2023/07/18 06:01:08;;;;;;;;;;;16.40;72.30;;;;;;4122146;28;19924;-88
2023/07/18 06:03:09;;;;;;;;;;;16.40;72.10;;;;;;4136263;28;19918;-89
2023/07/18 06:05:15;;;;;;;;;;;16.50;72.10;;;;;;4121415;28;20499;-89
2023/07/18 06:07:19;;;;;;;;;;;16.50;72.00;;;;;;4137292;28;19948;-88
2023/07/18 06:09:30;;;;;;;;;;;;;;;;;;;;;
2023/07/18 06:11:36;;;;;;;;;;;16.70;72.00;;;;;;4135924;28;19973;-89
2023/07/18 06:13:37;;;;;;;;;;;16.80;71.80;;;;;;4131410;28;19913;-88
2023/07/18 06:15:46;;;;;;;;;;;16.80;71.60;;;;;;4130870;28;20437;-89
2023/07/18 06:17:46;;;;;;;;;;;17.00;71.60;;;;;;4121200;28;21386;-86
2023/07/18 06:19:50;;;;;;;;;;;17.00;71.80;;;;;;4137814;28;19934;-89
2023/07/18 06:21:53;;;;;;;;;;;17.10;71.80;;;;;;4151390;28;20275;-88
2023/07/18 06:23:54;;;;;;;;;;;17.10;70.90;;;;;;4130994;28;19921;-87
2023/07/18 06:26:14;;;;;;;;;;;17.20;70.70;;;;;;4135801;28;19933;-89
2023/07/18 06:28:35;;;;;;;;;;;17.30;69.80;;;;;;4135678;28;19932;-87
2023/07/18 06:30:58;;;;;;;;;;;17.40;69.40;;;;;;4084723;28;19937;-90
2023/07/18 06:33:25;;;;;;;;;;;17.40;69.00;;;;;;4055528;29;20029;-88
2023/07/18 06:35:52;;;;;;;;;;;17.50;68.70;;;;;;4129623;28;20391;-88
2023/07/18 06:38:13;;;;;;;;;;;17.50;68.20;;;;;;4134462;28;19925;-88
2023/07/18 06:40:34;;;;;;;;;;;17.60;68.10;;;;;;4124090;28;19925;-87
2023/07/18 06:42:55;;;;;;;;;;;17.60;66.20;;;;;;4122315;28;20360;-87
2023/07/18 06:45:15;;;;;;;;;;;17.70;65.80;;;;;;4126386;28;20430;-88
2023/07/18 06:47:21;;;;;;;;;;;17.70;65.80;;;;;;4138076;28;19914;-89
2023/07/18 06:50:16;;;;;;;;;;;17.70;65.50;;;;;;4137620;28;20271;-90
2023/07/18 06:54:29;;;;;;;;;;;17.80;65.00;;;;;;4422117;22;19929;-87
2023/07/18 06:56:44;;;;;;;;;;;17.80;65.20;;;;;;4141164;28;19971;-88
2023/07/18 06:58:48;;;;;;;;;;;17.80;65.40;;;;;;4126585;28;19910;-88
2023/07/18 07:00:50;;;;;;;;;;;17.90;65.40;;;;;;4129951;28;19988;-87
2023/07/18 07:02:50;;;;;;;;;;;18.00;65.30;;;;;;4144158;28;19960;-87
2023/07/18 07:04:52;;;;;;;;;;;18.00;65.30;;;;;;4128571;28;20039;-86
2023/07/18 07:06:55;;;;;;;;;;;18.10;65.10;;;;;;4138709;28;19975;-87
2023/07/18 07:08:56;;;;;;;;;;;18.10;64.00;;;;;;4143629;28;19925;-90
2023/07/18 07:11:06;;;;;;;;;;;18.10;63.70;;;;;;4143571;28;19964;-87
2023/07/18 07:13:08;;;;;;;;;;;18.20;63.60;;;;;;4140530;28;19913;-86
2023/07/18 07:15:09;;;;;;;;;;;18.20;62.80;;;;;;4140165;28;20351;-87
2023/07/18 07:17:15;;;;;;;;;;;18.30;63.20;;;;;;4155057;28;19925;-87
2023/07/18 07:19:18;;;;;;;;;;;18.30;62.50;;;;;;4124611;28;19925;-88
2023/07/18 07:21:19;;;;;;;;;;;18.40;62.60;;;;;;4126250;28;19976;-87
2023/07/18 07:23:40;;;;;;;;;;;18.40;61.70;;;;;;4144817;28;19918;-86
2023/07/18 07:26:00;;;;;;;;;;;18.50;62.00;;;;;;4144541;28;19960;-87
2023/07/18 07:28:23;;;;;;;;;;;18.50;61.90;;;;;;4143755;28;19988;-88
2023/07/18 07:30:44;;;;;;;;;;;18.50;61.70;;;;;;4141162;28;19917;-86
2023/07/18 07:33:08;;;;;;;;;;;18.60;62.00;;;;;;4143470;28;19996;-86
2023/07/18 07:35:29;;;;;;;;;;;18.70;61.40;;;;;;4141375;28;19925;-87
2023/07/18 07:37:51;;;;;;;;;;;18.70;61.20;;;;;;4141874;28;19918;-86
2023/07/18 07:39:52;;;;;;;;;;;18.80;61.00;;;;;;4145126;28;19996;-88
2023/07/18 07:42:18;;;;;;;;;;;;;;;;;;;;;
2023/07/18 07:44:19;;;;;;;;;;;18.80;61.00;;;;;;4171955;28;19914;-87
2023/07/18 07:46:26;;;;;;;;;;;18.90;60.90;;;;;;4157289;28;20292;-87
2023/07/18 07:48:38;;;;;;;;;;;18.90;60.70;;;;;;4150986;28;19913;-85
2023/07/18 07:50:47;;;;;;;;;;;19.00;60.60;;;;;;4145114;28;20315;-88
2023/07/18 07:52:47;;;;;;;;;;;19.00;59.50;;;;;;4146955;28;19922;-86
2023/07/18 07:54:48;;;;;;;;;;;19.00;58.30;;;;;;4150045;28;20021;-88
2023/07/18 07:56:49;;;;;;;;;;;19.10;57.80;;;;;;4161210;28;19988;-89
2023/07/18 07:58:50;;;;;;;;;;;19.00;57.80;;;;;;4148894;28;19910;-89
2023/07/18 08:00:51;;;;;;;;;;;19.10;57.70;;;;;;4161436;28;21100;-87
2023/07/18 08:02:58;;;;;;;;;;;19.20;58.10;;;;;;4145615;28;20000;-86
2023/07/18 08:05:08;;;;;;;;;;;19.30;58.20;;;;;;4138546;28;19961;-86
2023/07/18 08:10:18;;;;;;;;;;;19.30;58.00;;;;;;4123754;28;19914;-88
2023/07/18 08:12:39;;;;;;;;;;;19.40;57.70;;;;;;4137661;28;19930;-89
2023/07/18 08:15:00;;;;;;;;;;;19.50;57.90;;;;;;4136288;28;19910;-87
2023/07/18 08:17:20;;;;;;;;;;;19.50;57.70;;;;;;4139923;28;19917;-86
2023/07/18 08:19:35;;;;;;;;;;;19.50;56.90;;;;;;4141768;28;19913;-86
2023/07/18 08:21:56;;;;;;;;;;;19.50;56.60;;;;;;4140617;28;19949;-86
2023/07/18 08:24:19;;;;;;;;;;;19.60;55.70;;;;;;4136905;28;20062;-89
2023/07/18 08:26:20;;;;;;;;;;;19.50;55.80;;;;;;4124915;28;19921;-86
2023/07/18 08:28:41;;;;;;;;;;;19.50;55.70;;;;;;4137277;28;19944;-87
2023/07/18 08:31:07;;;;;;;;;;;19.60;56.20;;;;;;4144346;28;19928;-87
2023/07/18 08:33:19;;;;;;;;;;;19.50;55.50;;;;;;4141570;28;19925;-87
2023/07/18 08:35:42;;;;;;;;;;;19.50;56.00;;;;;;4143769;28;19957;-88
2023/07/18 08:38:03;;;;;;;;;;;19.50;56.10;;;;;;4140012;28;19917;-88
2023/07/18 08:40:26;;;;;;;;;;;19.50;56.20;;;;;;4139014;28;19945;-87
2023/07/18 08:42:47;;;;;;;;;;;19.50;56.00;;;;;;4150673;28;20615;-89
2023/07/18 08:45:13;;;;;;;;;;;19.50;56.10;;;;;;4156293;28;19932;-89
2023/07/18 08:47:34;;;;;;;;;;;19.60;55.90;;;;;;4138576;28;19917;-87
2023/07/18 08:49:55;;;;;;;;;;;19.60;55.90;;;;;;4138195;28;19919;-87
2023/07/18 08:52:15;;;;;;;;;;;19.70;56.20;;;;;;4136853;28;19926;-86
2023/07/18 08:54:36;;;;;;;;;;;19.70;55.50;;;;;;4139777;28;20008;-86
2023/07/18 08:56:42;;;;;;;;;;;19.80;55.40;;;;;;4143332;28;19986;-86
2023/07/18 08:58:43;;;;;;;;;;;19.90;56.00;;;;;;4129787;28;19918;-87
2023/07/18 09:00:44;;;;;;;;;;;19.90;55.20;;;;;;4124731;28;20130;-86
2023/07/18 09:03:04;;;;;;;;;;;20.10;54.60;;;;;;4136767;28;19914;-86
2023/07/18 09:05:05;;;;;;;;;;;20.10;55.00;;;;;;4139178;28;19993;-87
2023/07/18 09:07:15;;;;;;;;;;;20.10;54.80;;;;;;4126685;28;19940;-88
2023/07/18 09:09:22;;;;;;;;;;;20.20;54.60;;;;;;4131590;28;20277;-88
2023/07/18 09:11:24;;;;;;;;;;;20.20;53.90;;;;;;4143004;28;19921;-86
2023/07/18 09:13:27;;;;;;;;;;;20.20;53.20;;;;;;4143259;28;19909;-87
2023/07/18 09:15:28;;;;;;;;;;;20.20;54.10;;;;;;4123534;28;19924;-87
2023/07/18 09:17:31;;;;;;;;;;;20.20;53.60;;;;;;4129560;28;19921;-89
2023/07/18 09:22:19;;;;;;;;;;;20.20;53.80;;;;;;4128399;28;19978;-88
2023/07/18 09:24:28;;;;;;;;;;;20.20;54.00;;;;;;4118404;28;20555;-87
2023/07/18 09:26:30;;;;;;;;;;;20.40;53.80;;;;;;4095498;28;19918;-88
2023/07/18 09:28:39;;;;;;;;;;;20.40;53.80;;;;;;4111262;28;19962;-87
2023/07/18 09:30:49;;;;;;;;;;;20.40;54.10;;;;;;4091811;28;19918;-87
2023/07/18 09:33:10;;;;;;;;;;;20.50;53.50;;;;;;4107516;28;20002;-87
2023/07/18 09:35:35;;;;;;;;;;;20.60;53.60;;;;;;4118784;28;20443;-87
2023/07/18 09:37:44;;;;;;;;;;;20.60;53.20;;;;;;4109028;28;20419;-87
2023/07/18 09:40:07;;;;;;;;;;;20.60;52.20;;;;;;4105095;28;19934;-86
2023/07/18 09:42:28;;;;;;;;;;;20.60;51.70;;;;;;4107875;28;19973;-87
2023/07/18 09:44:52;;;;;;;;;;;20.50;52.00;;;;;;4103876;28;19922;-89
2023/07/18 09:47:13;;;;;;;;;;;20.60;51.20;;;;;;4118268;28;19991;-87
2023/07/18 09:49:41;;;;;;;;;;;20.70;51.60;;;;;;4112136;28;20014;-87
2023/07/18 09:52:05;;;;;;;;;;;20.70;52.50;;;;;;4122070;28;19937;-87
2023/07/18 09:54:26;;;;;;;;;;;20.80;51.50;;;;;;4144021;28;19929;-89
2023/07/18 09:56:48;;;;;;;;;;;20.90;50.50;;;;;;4149111;28;19958;-88
2023/07/18 09:58:48;;;;;;;;;;;20.90;51.40;;;;;;4142057;28;20292;-87
2023/07/18 10:00:50;;;;;;;;;;;20.90;50.50;;;;;;4139824;28;19922;-86
2023/07/18 10:02:52;;;;;;;;;;;21.00;50.10;;;;;;4144365;28;19985;-87
2023/07/18 10:04:56;;;;;;;;;;;21.00;49.70;;;;;;4157184;28;19917;-90
2023/07/18 10:06:57;;;;;;;;;;;21.00;50.70;;;;;;4167514;28;19914;-89
2023/07/18 10:08:59;;;;;;;;;;;21.10;50.60;;;;;;4163058;28;19901;-87
2023/07/18 10:11:07;;;;;;;;;;;21.10;50.20;;;;;;4163514;28;19906;-88
2023/07/18 10:13:08;;;;;;;;;;;21.20;50.60;;;;;;4164326;28;19902;-88
2023/07/18 10:15:09;;;;;;;;;;;21.20;49.20;;;;;;4161244;28;19905;-91
2023/07/18 10:17:23;;;;;;;;;;;21.20;49.40;;;;;;4153927;28;19923;-88
2023/07/18 10:19:24;;;;;;;;;;;21.20;48.80;;;;;;4145507;28;19967;-86
2023/07/18 10:21:32;;;;;;;;;;;21.20;49.40;;;;;;4145131;28;19922;-88
2023/07/18 10:23:38;;;;;;;;;;;21.20;49.70;;;;;;4142872;28;19948;-88
2023/07/18 10:25:59;;;;;;;;;;;21.10;48.80;;;;;;4139295;28;20016;-88
2023/07/18 10:28:39;;;;;;;;;;;21.10;48.80;;;;;;4142955;28;19917;-88
2023/07/18 10:31:00;;;;;;;;;;;21.00;49.00;;;;;;4143095;28;19910;-86
2023/07/18 10:33:20;;;;;;;;;;;21.00;48.90;;;;;;4138818;28;20563;-87
2023/07/18 10:35:47;;;;;;;;;;;20.90;49.50;;;;;;4138456;28;19928;-86
2023/07/18 10:38:08;;;;;;;;;;;20.90;49.40;;;;;;4134174;28;20372;-88
2023/07/18 10:40:09;;;;;;;;;;;20.90;49.80;;;;;;4138422;28;20299;-86
2023/07/18 10:42:27;;;;;;;;;;;20.80;49.70;;;;;;4138128;28;19917;-86
2023/07/18 10:44:30;;;;;;;;;;;20.80;49.80;;;;;;4121752;28;19910;-88
2023/07/18 10:46:39;;;;;;;;;;;20.80;49.90;;;;;;4141775;28;20637;-88
2023/07/18 10:48:48;;;;;;;;;;;20.80;50.00;;;;;;4125227;28;19922;-86
2023/07/18 10:50:49;;;;;;;;;;;20.70;50.10;;;;;;4127037;28;20427;-88
2023/07/18 10:52:51;;;;;;;;;;;20.70;50.00;;;;;;4137500;28;20008;-88
2023/07/18 10:54:55;;;;;;;;;;;20.70;49.80;;;;;;4120437;28;19929;-86
2023/07/18 10:56:56;;;;;;;;;;;20.60;50.10;;;;;;4134005;28;19984;-86
2023/07/18 10:59:00;;;;;;;;;;;20.60;49.70;;;;;;4123799;28;19918;-89
2023/07/18 11:01:02;;;;;;;;;;;20.60;49.90;;;;;;4125871;28;20384;-86
2023/07/18 11:03:17;;;;;;;;;;;20.60;50.10;;;;;;4124780;28;20010;-87
2023/07/18 11:05:18;;;;;;;;;;;20.50;50.10;;;;;;4134324;28;19932;-86
2023/07/18 11:07:49;;;;;;;;;;;20.50;49.60;;;;;;4135709;28;19921;-86
2023/07/18 11:12:46;;;;;;;;;;;20.40;48.70;;;;;;4097320;28;19924;-86
2023/07/18 11:15:07;;;;;;;;;;;20.30;49.40;;;;;;4096458;28;20408;-87
2023/07/18 11:17:12;;;;;;;;;;;20.30;49.20;;;;;;4066575;29;19919;-87
2023/07/18 11:19:42;;;;;;;;;;;20.20;49.20;;;;;;4085546;28;19922;-87
2023/07/18 11:22:20;;;;;;;;;;;20.20;49.40;;;;;;4174771;22;20374;-87
2023/07/18 11:25:15;;;;;;;;;;;20.20;49.40;;;;;;4158280;28;19929;-88
2023/07/18 11:27:48;;;;;;;;;;;20.10;49.20;;;;;;4169489;28;20711;-86
2023/07/18 11:30:09;;;;;;;;;;;20.10;49.40;;;;;;4157030;28;19924;-86
2023/07/18 11:32:29;;;;;;;;;;;20.10;49.20;;;;;;4150151;28;20391;-87
2023/07/18 11:34:57;;;;;;;;;;;20.00;49.70;;;;;;4141388;28;20364;-87
2023/07/18 11:37:29;;;;;;;;;;;20.00;49.80;;;;;;4142064;28;19921;-88
2023/07/18 11:40:12;;;;;;;;;;;;;;;;;;;;;
2023/07/18 11:42:17;;;;;;;;;;;20.00;50.00;;;;;;4216408;22;20545;-87
2023/07/18 11:50:17;;;;;;;;;;;19.90;50.30;;;;;;4113302;28;19918;-87
2023/07/18 11:52:50;;;;;;;;;;;19.90;50.70;;;;;;4330254;23;20322;-87
2023/07/18 11:55:11;;;;;;;;;;;19.80;50.80;;;;;;4155858;28;20035;-90
2023/07/18 11:57:32;;;;;;;;;;;19.90;51.50;;;;;;4268084;22;21074;-86
2023/07/18 12:02:01;;;;;;;;;;;19.90;50.60;;;;;;4124570;28;19933;-91
2023/07/18 12:04:09;;;;;;;;;;;20.00;50.60;;;;;;4111432;28;19941;-90
2023/07/18 12:07:11;;;;;;;;;;;20.00;50.50;;;;;;4125248;28;19917;-89
2023/07/18 12:10:12;;;;;;;;;;;20.10;50.70;;;;;;4062780;29;19915;-92
2023/07/18 12:22:49;;;;;;;;;;;20.30;51.70;;;;;;4086096;29;20499;-89
2023/07/18 12:25:31;;;;;;;;;;;20.50;51.20;;;;;;4064818;29;19925;-91
2023/07/18 12:30:22;;;;;;;;;;;20.70;49.70;;;;;;4259829;22;19957;-89
2023/07/18 12:33:04;;;;;;;;;;;20.80;48.10;;;;;;4065328;29;20461;-90
2023/07/18 12:35:25;;;;;;;;;;;21.00;49.00;;;;;;4063279;29;20593;-90
2023/07/18 12:43:19;;;;;;;;;;;21.30;48.50;;;;;;4359124;23;19941;-85
2023/07/18 12:45:43;;;;;;;;;;;21.40;48.40;;;;;;4110908;28;19930;-88
2023/07/18 12:48:06;;;;;;;;;;;21.50;47.10;;;;;;4119259;28;20422;-86
2023/07/18 12:52:55;;;;;;;;;;;21.50;47.60;;;;;;4109637;28;20367;-87
2023/07/18 12:54:58;;;;;;;;;;;21.60;47.30;;;;;;4088920;28;19923;-86
2023/07/18 12:57:01;;;;;;;;;;;21.60;47.60;;;;;;4110109;28;20012;-88
2023/07/18 12:59:22;;;;;;;;;;;21.60;47.20;;;;;;4123937;28;19929;-90
2023/07/18 13:01:23;;;;;;;;;;;21.50;46.80;;;;;;4407821;23;19925;-90
2023/07/18 13:03:44;;;;;;;;;;;21.50;47.30;;;;;;4141671;28;19968;-89
2023/07/18 13:06:06;;;;;;;;;;;21.50;47.20;;;;;;4129490;28;20336;-90
2023/07/18 13:08:27;;;;;;;;;;;21.40;47.40;;;;;;4135195;28;20360;-88
2023/07/18 13:10:50;;;;;;;;;;;21.40;47.30;;;;;;4123572;28;20602;-88
2023/07/18 13:13:11;;;;;;;;;;;21.30;47.20;;;;;;4123765;28;20012;-89
2023/07/18 13:15:32;;;;;;;;;;;21.20;47.00;;;;;;4139524;28;20502;-89
2023/07/18 13:17:59;;;;;;;;;;;21.20;47.40;;;;;;4124683;28;20280;-87
2023/07/18 13:20:21;;;;;;;;;;;21.10;47.40;;;;;;4119127;28;19917;-88
2023/07/18 13:22:41;;;;;;;;;;;21.00;48.10;;;;;;4119944;28;20079;-89
2023/07/18 13:24:42;;;;;;;;;;;21.00;48.70;;;;;;4123360;28;19918;-91
2023/07/18 13:26:43;;;;;;;;;;;20.90;48.80;;;;;;4121188;28;20000;-89
2023/07/18 13:28:43;;;;;;;;;;;20.90;48.30;;;;;;4124587;28;20110;-86
2023/07/18 13:30:44;;;;;;;;;;;20.80;48.20;;;;;;4120954;28;19918;-87